Time;durP1;ratioP1;P1;durP2;ratioP2;P2;SDS_P1;SDS_P2;PMS_P1;PMS_P2;Temp;Humidity;BMP_temperature;BMP_pressure;BME280_temperature;BME280_humidity;BME280_pressure;Samples;Min_cycle;Max_cycle;Signal;HPM_P1;HPM_P2
2022/12/05 08:59:55;;;;;;;;;;;18.20;45.30;;;;;;5091401;28;20006;-67
2022/12/05 09:02:20;;;;;;;;;;;18.20;45.50;;;;;;5079840;28;20372;-67
2022/12/05 09:04:48;;;;;;;;;;;18.20;45.80;;;;;;5080341;28;20011;-66
2022/12/05 09:07:14;;;;;;;;;;;18.10;45.70;;;;;;5067152;28;19924;-69
2022/12/05 09:09:40;;;;;;;;;;;18.10;45.80;;;;;;5080552;28;19970;-67
2022/12/05 09:12:05;;;;;;;;;;;18.10;46.00;;;;;;5055814;28;19920;-72
2022/12/05 09:14:31;;;;;;;;;;;18.10;46.10;;;;;;5044687;28;20052;-69
2022/12/05 09:16:57;;;;;;;;;;;18.10;46.40;;;;;;5059548;28;19932;-69
2022/12/05 09:19:24;;;;;;;;;;;18.10;46.60;;;;;;5063582;28;20398;-68
2022/12/05 09:21:50;;;;;;;;;;;18.10;46.70;;;;;;5078847;28;20316;-68
2022/12/05 09:24:16;;;;;;;;;;;18.10;46.70;;;;;;5058002;28;20030;-70
2022/12/05 09:26:41;;;;;;;;;;;18.10;46.80;;;;;;5064098;28;19949;-69
2022/12/05 09:29:08;;;;;;;;;;;18.10;46.80;;;;;;5084623;28;19948;-72
2022/12/05 09:31:34;;;;;;;;;;;18.10;46.80;;;;;;5083259;28;20022;-71
2022/12/05 09:34:00;;;;;;;;;;;18.10;46.80;;;;;;5097012;28;20587;-68
2022/12/05 09:36:27;;;;;;;;;;;18.00;46.70;;;;;;5086176;28;19950;-66
2022/12/05 09:38:54;;;;;;;;;;;18.00;46.80;;;;;;5087401;28;20006;-69
2022/12/05 09:44:06;;;;;;;;;;;18.90;46.00;;;;;;5071194;28;19921;-67
2022/12/05 09:46:52;;;;;;;;;;;19.70;44.20;;;;;;5062524;28;19929;-66
2022/12/05 09:49:17;;;;;;;;;;;20.30;43.00;;;;;;5053833;28;19943;-67
2022/12/05 09:51:44;;;;;;;;;;;21.30;41.40;;;;;;5048986;28;19925;-69
2022/12/05 09:54:11;;;;;;;;;;;22.00;40.10;;;;;;5053742;28;19949;-71
2022/12/05 09:56:37;;;;;;;;;;;22.70;39.00;;;;;;5053887;28;19920;-69
2022/12/05 09:59:04;;;;;;;;;;;23.00;38.40;;;;;;5051339;28;19932;-65
2022/12/05 10:04:17;;;;;;;;;;;23.00;38.40;;;;;;5104004;27;1860252;-76
2022/12/05 10:12:24;;;;;;;;;;;22.20;39.40;;;;;;5085936;27;19924;-74
2022/12/05 10:17:33;;;;;;;;;;;21.90;40.00;;;;;;5067327;28;19925;-69
2022/12/05 10:20:00;;;;;;;;;;;21.70;40.30;;;;;;5055973;28;20039;-67
2022/12/05 10:22:29;;;;;;;;;;;21.40;40.60;;;;;;5070720;28;19982;-66
2022/12/05 10:24:58;;;;;;;;;;;21.20;41.20;;;;;;5046410;28;19931;-68
2022/12/05 10:27:32;;;;;;;;;;;21.00;41.70;;;;;;5072162;28;19924;-72
2022/12/05 10:30:00;;;;;;;;;;;20.70;42.10;;;;;;5063135;28;20047;-71
2022/12/05 10:32:45;;;;;;;;;;;20.60;42.40;;;;;;5052531;28;19950;-67
2022/12/05 10:35:17;;;;;;;;;;;20.50;42.60;;;;;;5050120;28;20017;-74
2022/12/05 10:37:45;;;;;;;;;;;20.30;43.00;;;;;;5055159;28;19937;-70
2022/12/05 10:40:11;;;;;;;;;;;20.20;43.20;;;;;;5068096;28;19951;-72
2022/12/05 10:42:37;;;;;;;;;;;20.10;43.40;;;;;;5051351;28;19932;-71
2022/12/05 10:45:04;;;;;;;;;;;20.00;43.70;;;;;;5053277;28;19925;-72
2022/12/05 10:47:30;;;;;;;;;;;19.80;43.90;;;;;;5053772;28;19925;-70
2022/12/05 10:49:58;;;;;;;;;;;19.70;44.00;;;;;;5065186;28;19925;-74
2022/12/05 10:52:24;;;;;;;;;;;19.80;44.50;;;;;;5041133;28;19928;-70
2022/12/05 10:54:54;;;;;;;;;;;20.50;43.90;;;;;;5041853;28;19960;-74
2022/12/05 10:57:22;;;;;;;;;;;21.20;42.70;;;;;;5050213;28;20471;-68
2022/12/05 10:59:48;;;;;;;;;;;22.00;41.40;;;;;;5046786;28;19975;-70
2022/12/05 11:02:19;;;;;;;;;;;22.90;39.90;;;;;;5046597;28;19928;-71
2022/12/05 11:04:45;;;;;;;;;;;23.80;38.40;;;;;;5052504;28;20016;-68
2022/12/05 11:07:28;;;;;;;;;;;24.60;37.10;;;;;;5052006;28;20319;-68
2022/12/05 11:09:54;;;;;;;;;;;25.20;36.00;;;;;;5051922;28;19935;-72
2022/12/05 11:12:25;;;;;;;;;;;25.60;35.20;;;;;;5049489;28;19925;-72
2022/12/05 11:14:55;;;;;;;;;;;25.90;34.70;;;;;;5046522;28;19929;-71
2022/12/05 11:17:36;;;;;;;;;;;26.00;34.50;;;;;;5066871;28;20296;-72
2022/12/05 11:20:22;;;;;;;;;;;26.30;34.30;;;;;;5052389;28;20003;-70
2022/12/05 11:22:49;;;;;;;;;;;26.20;34.10;;;;;;5066037;28;19959;-70
2022/12/05 11:25:31;;;;;;;;;;;26.20;33.70;;;;;;5051384;28;19925;-70
2022/12/05 11:27:58;;;;;;;;;;;26.10;33.70;;;;;;5046732;28;20325;-70
2022/12/05 11:30:26;;;;;;;;;;;26.00;33.70;;;;;;5043796;28;19928;-70
2022/12/05 11:33:12;;;;;;;;;;;25.90;33.70;;;;;;5041194;28;19932;-68
2022/12/05 11:35:38;;;;;;;;;;;26.00;33.70;;;;;;5037093;28;20336;-70
2022/12/05 11:38:04;;;;;;;;;;;26.10;33.70;;;;;;5035989;28;19928;-69
2022/12/05 11:40:38;;;;;;;;;;;26.10;33.60;;;;;;5040821;28;19986;-69
2022/12/05 11:46:04;;;;;;;;;;;26.10;33.90;;;;;;5068190;27;19924;-68
2022/12/05 11:48:46;;;;;;;;;;;25.90;34.20;;;;;;5057442;28;20376;-68
2022/12/05 11:54:02;;;;;;;;;;;26.00;34.20;;;;;;5089454;27;19947;-70
2022/12/05 11:56:35;;;;;;;;;;;25.90;34.30;;;;;;5075140;28;19950;-70
2022/12/05 11:59:20;;;;;;;;;;;25.80;34.50;;;;;;5081402;28;19973;-73
2022/12/05 12:04:36;;;;;;;;;;;25.60;34.90;;;;;;5086373;27;1861202;-71
2022/12/05 12:07:22;;;;;;;;;;;25.40;35.10;;;;;;5111914;27;19930;-73
2022/12/05 12:10:08;;;;;;;;;;;25.20;35.40;;;;;;5132574;27;20275;-79
2022/12/05 12:12:42;;;;;;;;;;;25.00;35.80;;;;;;5112461;27;19923;-68
2022/12/05 12:15:28;;;;;;;;;;;24.70;36.20;;;;;;5107511;27;19973;-72
2022/12/05 12:18:01;;;;;;;;;;;24.30;36.70;;;;;;5110556;27;19923;-71
2022/12/05 12:20:36;;;;;;;;;;;23.90;36.90;;;;;;5114355;27;20279;-71
2022/12/05 12:23:21;;;;;;;;;;;23.50;37.60;;;;;;5125592;27;20587;-70
2022/12/05 12:26:07;;;;;;;;;;;23.10;38.10;;;;;;5126889;27;19927;-74
2022/12/05 12:28:38;;;;;;;;;;;22.70;38.70;;;;;;5110257;27;19924;-71
2022/12/05 12:31:23;;;;;;;;;;;22.40;39.30;;;;;;5119784;27;19923;-66
2022/12/05 12:42:12;;;;;;;;;;;21.70;40.60;;;;;;5085294;27;19920;-73
2022/12/05 12:44:47;;;;;;;;;;;21.50;40.90;;;;;;5065263;28;19924;-68
2022/12/05 12:47:32;;;;;;;;;;;21.40;41.30;;;;;;5082801;28;19924;-69
2022/12/05 12:52:49;;;;;;;;;;;21.10;42.10;;;;;;5053746;28;19953;-68
2022/12/05 12:55:21;;;;;;;;;;;20.90;42.60;;;;;;5046599;28;19932;-69
2022/12/05 12:57:59;;;;;;;;;;;20.70;43.20;;;;;;5050860;28;19925;-74
2022/12/05 13:05:50;;;;;;;;;;;20.40;44.60;;;;;;5052623;28;20491;-69
2022/12/05 13:10:58;;;;;;;;;;;20.20;45.50;;;;;;5114641;27;19920;-67
2022/12/05 13:13:26;;;;;;;;;;;20.10;45.90;;;;;;5085877;27;19936;-70
2022/12/05 13:15:55;;;;;;;;;;;20.00;46.30;;;;;;5092862;27;19924;-68
2022/12/05 13:18:22;;;;;;;;;;;20.00;46.60;;;;;;5087913;27;19931;-67
2022/12/05 13:20:50;;;;;;;;;;;20.00;47.00;;;;;;5085703;27;19927;-70
2022/12/05 13:23:17;;;;;;;;;;;20.00;47.40;;;;;;5113508;27;20701;-72
2022/12/05 13:25:43;;;;;;;;;;;19.90;47.60;;;;;;5108202;27;19927;-70
2022/12/05 13:28:19;;;;;;;;;;;19.80;47.70;;;;;;5095769;27;19935;-72
2022/12/05 13:30:56;;;;;;;;;;;19.70;48.60;;;;;;5116738;27;19931;-71
2022/12/05 13:33:24;;;;;;;;;;;19.70;48.50;;;;;;5096610;27;20396;-70
2022/12/05 13:44:32;;;;;;;;;;;19.60;49.60;;;;;;5097948;27;19924;-66
2022/12/05 13:46:58;;;;;;;;;;;19.60;49.70;;;;;;5112325;27;20063;-67
2022/12/05 13:49:33;;;;;;;;;;;19.60;50.10;;;;;;5092566;27;20351;-70
2022/12/05 13:52:18;;;;;;;;;;;19.50;50.00;;;;;;5116008;27;19932;-72
2022/12/05 13:54:49;;;;;;;;;;;19.50;50.00;;;;;;5114050;27;19969;-71
2022/12/05 13:57:34;;;;;;;;;;;19.40;49.80;;;;;;5073182;27;20593;-68
2022/12/05 14:00:03;;;;;;;;;;;19.40;49.80;;;;;;5092418;28;19931;-68
2022/12/05 14:08:19;;;;;;;;;;;19.20;49.80;;;;;;5063940;27;19921;-66
2022/12/05 14:16:26;;;;;;;;;;;19.20;49.40;;;;;;5081022;28;19912;-67
2022/12/05 14:18:57;;;;;;;;;;;19.30;49.10;;;;;;5078761;28;19935;-67
2022/12/05 14:21:34;;;;;;;;;;;19.20;48.80;;;;;;5079569;28;19928;-66
2022/12/05 14:27:06;;;;;;;;;;;19.10;48.50;;;;;;5066280;28;19917;-66
2022/12/05 14:29:36;;;;;;;;;;;19.00;48.20;;;;;;5089218;28;19928;-66
2022/12/05 14:37:42;;;;;;;;;;;19.00;48.20;;;;;;5104245;27;19956;-68
2022/12/05 14:40:28;;;;;;;;;;;19.00;48.40;;;;;;5077686;28;19920;-68
2022/12/05 14:45:39;;;;;;;;;;;18.90;48.70;;;;;;5111247;27;19916;-68
2022/12/05 14:50:53;;;;;;;;;;;18.80;48.80;;;;;;5103670;27;19920;-67
2022/12/05 14:58:57;;;;;;;;;;;18.80;48.80;;;;;;5083784;28;19919;-66
2022/12/05 15:06:49;;;;;;;;;;;18.80;48.50;;;;;;5086007;28;19919;-65
2022/12/05 15:09:34;;;;;;;;;;;18.70;48.40;;;;;;5088857;28;19965;-65
2022/12/05 15:12:02;;;;;;;;;;;18.60;49.10;;;;;;5075127;28;20299;-66
2022/12/05 15:14:28;;;;;;;;;;;18.60;48.30;;;;;;5061653;28;20598;-67
2022/12/05 15:16:57;;;;;;;;;;;18.60;48.10;;;;;;5061489;28;20376;-68
2022/12/05 15:19:28;;;;;;;;;;;18.70;48.00;;;;;;5061654;28;19921;-67
2022/12/05 15:21:56;;;;;;;;;;;18.70;47.90;;;;;;5062022;28;20144;-67
2022/12/05 15:24:22;;;;;;;;;;;18.70;47.90;;;;;;5062669;28;19932;-68
2022/12/05 15:26:50;;;;;;;;;;;18.70;47.70;;;;;;5062226;28;19920;-67
2022/12/05 15:32:01;;;;;;;;;;;18.70;47.60;;;;;;5097171;27;1858601;-65
2022/12/05 15:40:05;;;;;;;;;;;18.60;47.40;;;;;;5098529;27;1863433;-66
2022/12/05 15:42:35;;;;;;;;;;;18.10;47.10;;;;;;5153487;27;19922;-66
2022/12/05 15:45:20;;;;;;;;;;;18.60;47.40;;;;;;5153356;27;20482;-65
2022/12/05 15:47:47;;;;;;;;;;;18.60;47.30;;;;;;5147173;27;20462;-65
2022/12/05 15:50:14;;;;;;;;;;;18.50;48.10;;;;;;5148460;27;20332;-65
2022/12/05 15:52:42;;;;;;;;;;;18.50;47.20;;;;;;5151072;27;19918;-65
2022/12/05 15:55:12;;;;;;;;;;;18.50;47.20;;;;;;5149921;27;20431;-65
2022/12/05 15:57:42;;;;;;;;;;;18.50;47.20;;;;;;5155258;27;19923;-65
2022/12/05 16:00:14;;;;;;;;;;;18.60;47.30;;;;;;5143243;27;19934;-66
2022/12/05 16:02:42;;;;;;;;;;;18.60;47.40;;;;;;5144306;27;19970;-66
2022/12/05 16:05:27;;;;;;;;;;;18.60;47.20;;;;;;5163425;27;19919;-66
2022/12/05 16:07:53;;;;;;;;;;;18.80;47.00;;;;;;5144937;27;20350;-66
2022/12/05 16:10:19;;;;;;;;;;;18.90;46.70;;;;;;5165557;27;20021;-66
2022/12/05 16:12:46;;;;;;;;;;;18.90;46.50;;;;;;5154640;27;19918;-66
2022/12/05 16:17:54;;;;;;;;;;;19.00;46.10;;;;;;5086531;28;19912;-66
2022/12/05 16:20:22;;;;;;;;;;;19.10;45.90;;;;;;5085738;28;19970;-66
2022/12/05 16:22:49;;;;;;;;;;;19.10;45.80;;;;;;5086024;28;20158;-66
2022/12/05 16:25:16;;;;;;;;;;;19.10;45.70;;;;;;5085639;28;20403;-66
2022/12/05 16:27:42;;;;;;;;;;;19.10;45.60;;;;;;5085656;28;19932;-66
2022/12/05 16:30:16;;;;;;;;;;;19.30;45.70;;;;;;5086437;28;19928;-65
2022/12/05 16:32:42;;;;;;;;;;;19.00;45.50;;;;;;5085523;28;19982;-66
2022/12/05 16:35:28;;;;;;;;;;;19.00;45.60;;;;;;5086857;28;19920;-66
2022/12/05 16:38:10;;;;;;;;;;;18.90;45.50;;;;;;5101733;28;19948;-66
2022/12/05 16:40:37;;;;;;;;;;;18.90;45.60;;;;;;5085031;28;19916;-66
2022/12/05 16:43:04;;;;;;;;;;;18.90;45.70;;;;;;5086229;28;19920;-66
2022/12/05 16:45:38;;;;;;;;;;;18.80;45.70;;;;;;5068275;28;19920;-66
2022/12/05 16:48:12;;;;;;;;;;;18.80;45.70;;;;;;5085306;28;19925;-66
2022/12/05 16:50:38;;;;;;;;;;;18.70;45.70;;;;;;5085902;28;19921;-68
2022/12/05 16:55:48;;;;;;;;;;;18.70;45.80;;;;;;5107292;27;20178;-66
2022/12/05 16:58:18;;;;;;;;;;;18.60;45.80;;;;;;5105964;28;19926;-66
2022/12/05 17:00:44;;;;;;;;;;;18.60;45.90;;;;;;5106407;28;20193;-66
2022/12/05 17:03:11;;;;;;;;;;;18.60;45.90;;;;;;5139740;27;19959;-66
2022/12/05 17:05:37;;;;;;;;;;;18.50;45.90;;;;;;5106229;28;19959;-66
2022/12/05 17:08:03;;;;;;;;;;;18.50;46.00;;;;;;5106049;28;19967;-66
2022/12/05 17:10:28;;;;;;;;;;;18.50;46.00;;;;;;5106973;28;19916;-66
2022/12/05 17:12:54;;;;;;;;;;;18.50;46.00;;;;;;5104778;28;20022;-66
2022/12/05 17:15:19;;;;;;;;;;;18.50;45.90;;;;;;5105513;28;19935;-65
2022/12/05 17:17:45;;;;;;;;;;;18.50;45.90;;;;;;5107111;28;19920;-67
2022/12/05 17:20:11;;;;;;;;;;;18.50;45.90;;;;;;5105408;28;20457;-66
2022/12/05 17:22:39;;;;;;;;;;;18.60;45.80;;;;;;5106097;28;19924;-67
2022/12/05 17:25:24;;;;;;;;;;;18.70;45.80;;;;;;5105771;28;19926;-67
2022/12/05 17:27:50;;;;;;;;;;;18.80;45.50;;;;;;5105481;28;19923;-67
2022/12/05 17:30:15;;;;;;;;;;;18.90;45.30;;;;;;5105828;28;20288;-66
2022/12/05 17:32:41;;;;;;;;;;;18.90;45.00;;;;;;5106527;28;19920;-66
2022/12/05 17:35:11;;;;;;;;;;;19.00;44.90;;;;;;5105115;28;20454;-67
2022/12/05 17:37:36;;;;;;;;;;;19.10;44.70;;;;;;5106686;28;19946;-67
2022/12/05 17:40:02;;;;;;;;;;;19.20;44.40;;;;;;5105888;28;19927;-67
2022/12/05 17:42:27;;;;;;;;;;;19.20;44.30;;;;;;5106529;28;20030;-67
2022/12/05 17:44:53;;;;;;;;;;;19.30;44.20;;;;;;5106791;28;20028;-67
2022/12/05 17:47:18;;;;;;;;;;;19.30;44.10;;;;;;5105581;28;20485;-67
2022/12/05 17:49:44;;;;;;;;;;;19.20;44.00;;;;;;5139003;27;19972;-67
2022/12/05 17:52:10;;;;;;;;;;;19.20;44.00;;;;;;5105006;28;19926;-67
2022/12/05 17:54:35;;;;;;;;;;;19.20;44.10;;;;;;5116515;28;19923;-67
2022/12/05 17:57:01;;;;;;;;;;;19.10;44.10;;;;;;5108089;28;19920;-67
2022/12/05 17:59:27;;;;;;;;;;;19.10;44.20;;;;;;5126426;28;19926;-67
2022/12/05 18:01:52;;;;;;;;;;;19.00;44.30;;;;;;5107990;28;19988;-67
2022/12/05 18:04:18;;;;;;;;;;;18.90;44.30;;;;;;5126563;28;19934;-68
2022/12/05 18:06:43;;;;;;;;;;;18.90;44.40;;;;;;5096867;28;19923;-67
2022/12/05 18:09:09;;;;;;;;;;;18.80;44.60;;;;;;5112727;28;19923;-67
2022/12/05 18:11:34;;;;;;;;;;;18.70;44.60;;;;;;5094171;28;19920;-67
2022/12/05 18:14:00;;;;;;;;;;;18.70;44.70;;;;;;5112037;28;19943;-67
2022/12/05 18:16:25;;;;;;;;;;;18.60;44.80;;;;;;5112236;28;19919;-67
2022/12/05 18:18:51;;;;;;;;;;;18.60;44.90;;;;;;5094048;28;19926;-67
2022/12/05 18:21:16;;;;;;;;;;;18.50;45.00;;;;;;5111706;28;20080;-67
2022/12/05 18:23:42;;;;;;;;;;;18.50;45.00;;;;;;5093895;28;19972;-69
2022/12/05 18:26:08;;;;;;;;;;;18.50;45.30;;;;;;5093508;28;19968;-67
2022/12/05 18:28:36;;;;;;;;;;;18.50;46.00;;;;;;5135529;27;20307;-67
2022/12/05 18:31:03;;;;;;;;;;;18.50;46.10;;;;;;5093964;28;19919;-67
2022/12/05 18:33:28;;;;;;;;;;;18.50;46.10;;;;;;5093746;28;19920;-67
2022/12/05 18:35:54;;;;;;;;;;;18.50;46.00;;;;;;5094192;28;19919;-67
2022/12/05 18:38:19;;;;;;;;;;;18.60;45.80;;;;;;5094530;28;19954;-67
2022/12/05 18:40:45;;;;;;;;;;;18.60;45.60;;;;;;5112612;28;19926;-67
2022/12/05 18:43:10;;;;;;;;;;;18.70;45.50;;;;;;5112593;28;20291;-67
2022/12/05 18:45:36;;;;;;;;;;;18.80;45.30;;;;;;5093716;28;19927;-67
2022/12/05 18:48:02;;;;;;;;;;;18.90;45.00;;;;;;5093701;28;19920;-67
2022/12/05 18:50:28;;;;;;;;;;;18.90;44.70;;;;;;5111793;28;19919;-67
2022/12/05 18:52:53;;;;;;;;;;;19.10;44.50;;;;;;5093229;28;19930;-68
2022/12/05 18:55:19;;;;;;;;;;;19.20;44.20;;;;;;5090151;28;19928;-66
2022/12/05 18:57:45;;;;;;;;;;;19.30;44.00;;;;;;5090347;28;20027;-67
2022/12/05 19:00:10;;;;;;;;;;;19.30;43.70;;;;;;5090060;28;19973;-66
2022/12/05 19:02:36;;;;;;;;;;;19.40;43.70;;;;;;5089188;28;19927;-67
2022/12/05 19:05:01;;;;;;;;;;;19.40;43.60;;;;;;5088676;28;20501;-67
2022/12/05 19:07:27;;;;;;;;;;;19.40;43.60;;;;;;5089514;28;19927;-67
2022/12/05 19:09:52;;;;;;;;;;;19.30;43.50;;;;;;5089150;28;19927;-67
2022/12/05 19:12:18;;;;;;;;;;;19.30;43.60;;;;;;5090663;28;19920;-66
2022/12/05 19:14:45;;;;;;;;;;;19.30;43.70;;;;;;5090883;28;19928;-67
2022/12/05 19:17:11;;;;;;;;;;;19.20;43.70;;;;;;5086202;28;19920;-67
2022/12/05 19:19:36;;;;;;;;;;;19.10;43.70;;;;;;5088704;28;19927;-67
2022/12/05 19:22:02;;;;;;;;;;;19.10;43.80;;;;;;5088685;28;19920;-67
2022/12/05 19:24:27;;;;;;;;;;;19.00;43.90;;;;;;5089149;28;19970;-67
2022/12/05 19:26:53;;;;;;;;;;;18.90;44.00;;;;;;5089286;28;19920;-67
2022/12/05 19:29:18;;;;;;;;;;;18.90;44.20;;;;;;5089756;28;20288;-67
2022/12/05 19:31:44;;;;;;;;;;;18.70;44.20;;;;;;5089615;28;19928;-67
2022/12/05 19:34:09;;;;;;;;;;;18.70;44.30;;;;;;5090767;28;20044;-66
2022/12/05 19:36:40;;;;;;;;;;;18.70;44.40;;;;;;5089454;28;19920;-66
2022/12/05 19:39:07;;;;;;;;;;;18.70;44.50;;;;;;5089621;28;20414;-66
2022/12/05 19:41:33;;;;;;;;;;;18.70;44.60;;;;;;5090656;28;19931;-67
2022/12/05 19:44:00;;;;;;;;;;;18.60;44.50;;;;;;5089709;28;19924;-67
2022/12/05 19:46:28;;;;;;;;;;;18.60;44.60;;;;;;5089702;28;19920;-67
2022/12/05 19:48:55;;;;;;;;;;;18.60;44.60;;;;;;5090761;28;19920;-67
2022/12/05 19:51:20;;;;;;;;;;;18.60;44.60;;;;;;5089268;28;19934;-66
2022/12/05 19:53:47;;;;;;;;;;;18.70;44.60;;;;;;5090541;28;19986;-66
2022/12/05 19:56:14;;;;;;;;;;;18.70;44.50;;;;;;5089043;28;19924;-66
2022/12/05 19:58:41;;;;;;;;;;;18.80;44.30;;;;;;5089529;28;20368;-66
2022/12/05 20:01:08;;;;;;;;;;;18.90;44.10;;;;;;5090262;28;19999;-67
2022/12/05 20:03:34;;;;;;;;;;;19.00;43.80;;;;;;5090396;28;20001;-67
2022/12/05 20:06:00;;;;;;;;;;;19.20;43.80;;;;;;5089163;28;20546;-66
2022/12/05 20:08:25;;;;;;;;;;;19.20;43.30;;;;;;5089008;28;19955;-67
2022/12/05 20:10:51;;;;;;;;;;;19.40;43.20;;;;;;5089221;28;19919;-68
2022/12/05 20:13:17;;;;;;;;;;;19.40;43.00;;;;;;5088834;28;20474;-69
2022/12/05 20:15:43;;;;;;;;;;;19.40;42.80;;;;;;5088973;28;19932;-69
2022/12/05 20:18:08;;;;;;;;;;;19.50;42.70;;;;;;5088814;28;19931;-69
2022/12/05 20:20:34;;;;;;;;;;;19.50;42.60;;;;;;5090033;28;19920;-69
2022/12/05 20:22:59;;;;;;;;;;;19.50;42.60;;;;;;5090276;28;19920;-68
2022/12/05 20:25:25;;;;;;;;;;;19.40;42.60;;;;;;5088659;28;20532;-67
2022/12/05 20:27:51;;;;;;;;;;;19.40;42.70;;;;;;5088692;28;19966;-67
2022/12/05 20:30:16;;;;;;;;;;;19.30;42.70;;;;;;5090062;28;19927;-66
2022/12/05 20:32:42;;;;;;;;;;;19.30;42.90;;;;;;5088787;28;20261;-67
2022/12/05 20:35:07;;;;;;;;;;;19.20;43.00;;;;;;5090001;28;20478;-67
2022/12/05 20:37:33;;;;;;;;;;;19.10;43.10;;;;;;5088727;28;19924;-67
2022/12/05 20:39:58;;;;;;;;;;;19.00;43.20;;;;;;5088829;28;19928;-67
2022/12/05 20:42:24;;;;;;;;;;;19.00;43.40;;;;;;5088593;28;20016;-67
2022/12/05 20:44:49;;;;;;;;;;;18.90;43.50;;;;;;5089891;28;19932;-67
2022/12/05 20:47:15;;;;;;;;;;;18.90;43.60;;;;;;5089944;28;19951;-67
2022/12/05 20:49:41;;;;;;;;;;;18.80;43.60;;;;;;5089525;28;20383;-67
2022/12/05 20:52:06;;;;;;;;;;;18.80;43.70;;;;;;5088498;28;19927;-66
2022/12/05 20:54:32;;;;;;;;;;;18.70;43.80;;;;;;5088346;28;19975;-67
2022/12/05 20:56:57;;;;;;;;;;;18.70;43.90;;;;;;5089564;28;19920;-67
2022/12/05 20:59:23;;;;;;;;;;;18.70;43.90;;;;;;5088064;28;19927;-67
2022/12/05 21:01:48;;;;;;;;;;;18.70;43.90;;;;;;5090057;28;19920;-66
2022/12/05 21:04:14;;;;;;;;;;;18.70;43.80;;;;;;5088464;28;19982;-67
2022/12/05 21:06:41;;;;;;;;;;;18.80;43.70;;;;;;5088620;28;20363;-66
2022/12/05 21:09:14;;;;;;;;;;;18.90;43.50;;;;;;5088216;28;19920;-66
2022/12/05 21:11:39;;;;;;;;;;;19.00;43.40;;;;;;5087952;28;19924;-66
2022/12/05 21:14:05;;;;;;;;;;;19.20;43.20;;;;;;5088060;28;19982;-66
2022/12/05 21:16:30;;;;;;;;;;;19.20;43.00;;;;;;5088383;28;19942;-67
2022/12/05 21:18:57;;;;;;;;;;;19.30;42.70;;;;;;5087943;28;19920;-66
2022/12/05 21:21:24;;;;;;;;;;;19.40;42.50;;;;;;5089395;28;19916;-67
2022/12/05 21:23:52;;;;;;;;;;;19.50;42.30;;;;;;5089410;28;19920;-66
2022/12/05 21:26:17;;;;;;;;;;;19.50;42.20;;;;;;5087997;28;20432;-67
2022/12/05 21:28:44;;;;;;;;;;;19.60;42.00;;;;;;5089401;28;19985;-67
2022/12/05 21:33:49;;;;;;;;;;;19.60;41.70;;;;;;5101526;27;1921759;-66
2022/12/05 21:36:15;;;;;;;;;;;19.70;41.70;;;;;;5168748;27;19959;-66
2022/12/05 21:38:41;;;;;;;;;;;19.70;41.70;;;;;;5158365;27;19919;-67
2022/12/05 21:41:07;;;;;;;;;;;19.60;41.70;;;;;;5158457;27;20276;-66
2022/12/05 21:43:33;;;;;;;;;;;19.60;41.70;;;;;;5158114;27;19934;-67
2022/12/05 21:45:59;;;;;;;;;;;19.50;41.80;;;;;;5168246;27;20317;-66
2022/12/05 21:48:25;;;;;;;;;;;19.40;41.90;;;;;;5157690;27;19929;-67
2022/12/05 21:50:51;;;;;;;;;;;19.40;42.00;;;;;;5158003;27;19918;-66
2022/12/05 21:53:17;;;;;;;;;;;19.30;42.10;;;;;;5168179;27;20024;-67
2022/12/05 21:55:42;;;;;;;;;;;19.30;42.30;;;;;;5168851;27;19927;-66
2022/12/05 21:58:09;;;;;;;;;;;19.20;42.30;;;;;;5168353;27;20374;-66
2022/12/05 22:00:35;;;;;;;;;;;19.20;42.50;;;;;;5157096;27;19923;-67
2022/12/05 22:03:01;;;;;;;;;;;19.10;42.50;;;;;;5158300;27;19952;-66
2022/12/05 22:05:26;;;;;;;;;;;19.10;42.70;;;;;;5158451;27;20373;-66
2022/12/05 22:07:52;;;;;;;;;;;19.00;42.70;;;;;;5167994;27;20335;-66
2022/12/05 22:10:17;;;;;;;;;;;19.10;42.90;;;;;;5167822;27;20506;-66
2022/12/05 22:12:43;;;;;;;;;;;19.00;42.80;;;;;;5168378;27;19923;-66
2022/12/05 22:15:09;;;;;;;;;;;18.90;42.80;;;;;;5168041;27;19933;-67
2022/12/05 22:17:34;;;;;;;;;;;19.10;42.90;;;;;;5157221;27;19919;-67
2022/12/05 22:20:00;;;;;;;;;;;19.00;42.90;;;;;;5167910;27;19944;-66
2022/12/05 22:22:26;;;;;;;;;;;19.00;42.80;;;;;;5157586;27;19925;-67
2022/12/05 22:24:51;;;;;;;;;;;19.10;42.70;;;;;;5157209;27;19998;-66
2022/12/05 22:27:17;;;;;;;;;;;19.10;42.50;;;;;;5168447;27;19959;-67
2022/12/05 22:29:42;;;;;;;;;;;19.30;42.40;;;;;;5167841;27;19998;-66
2022/12/05 22:32:08;;;;;;;;;;;19.40;42.20;;;;;;5167304;27;20381;-66
2022/12/05 22:34:33;;;;;;;;;;;19.40;41.90;;;;;;5167612;27;19934;-66
2022/12/05 22:36:59;;;;;;;;;;;19.50;41.80;;;;;;5157580;27;19919;-66
2022/12/05 22:39:24;;;;;;;;;;;19.60;41.70;;;;;;5156975;27;20013;-66
2022/12/05 22:41:50;;;;;;;;;;;19.60;41.60;;;;;;5156634;27;19919;-67
2022/12/05 22:44:16;;;;;;;;;;;19.70;41.50;;;;;;5159270;27;19919;-67
2022/12/05 22:46:41;;;;;;;;;;;19.70;41.40;;;;;;5142061;27;19975;-67
2022/12/05 22:49:07;;;;;;;;;;;19.70;41.30;;;;;;5141282;27;20010;-66
2022/12/05 22:51:32;;;;;;;;;;;19.70;41.20;;;;;;5141759;27;19919;-67
2022/12/05 22:53:58;;;;;;;;;;;19.70;41.20;;;;;;5138667;27;19945;-66
2022/12/05 22:56:25;;;;;;;;;;;19.70;41.20;;;;;;5116897;27;20251;-66
2022/12/05 22:58:52;;;;;;;;;;;19.80;41.20;;;;;;5141290;27;19934;-66
2022/12/05 23:04:00;;;;;;;;;;;19.60;41.20;;;;;;5087274;28;19922;-66
2022/12/05 23:06:26;;;;;;;;;;;19.60;41.30;;;;;;5082341;28;19916;-66
2022/12/05 23:08:52;;;;;;;;;;;19.60;41.40;;;;;;5066659;28;20345;-66
2022/12/05 23:11:18;;;;;;;;;;;19.50;41.50;;;;;;5067192;28;19928;-66
2022/12/05 23:13:44;;;;;;;;;;;19.40;41.60;;;;;;5066797;28;20267;-67
2022/12/05 23:16:11;;;;;;;;;;;19.40;41.70;;;;;;5066698;28;19920;-66
2022/12/05 23:18:46;;;;;;;;;;;19.30;41.70;;;;;;5067097;28;19920;-66
2022/12/05 23:23:52;;;;;;;;;;;19.30;42.00;;;;;;5084357;27;1945795;-67
2022/12/05 23:26:18;;;;;;;;;;;19.20;42.00;;;;;;5169531;27;20467;-66
2022/12/05 23:28:44;;;;;;;;;;;19.20;42.00;;;;;;5168788;27;20333;-67
2022/12/05 23:31:10;;;;;;;;;;;19.20;42.00;;;;;;5168805;27;19933;-66
2022/12/05 23:33:36;;;;;;;;;;;19.30;42.00;;;;;;5150213;27;19926;-67
2022/12/05 23:36:01;;;;;;;;;;;19.30;41.90;;;;;;5150286;27;19919;-66
2022/12/05 23:38:27;;;;;;;;;;;19.40;41.90;;;;;;5150523;27;19919;-67
2022/12/05 23:40:58;;;;;;;;;;;19.40;41.90;;;;;;5150741;27;20267;-67
2022/12/05 23:43:23;;;;;;;;;;;19.40;41.70;;;;;;5166842;27;20005;-66
2022/12/05 23:45:49;;;;;;;;;;;19.40;41.70;;;;;;5169644;27;20059;-67
2022/12/05 23:48:15;;;;;;;;;;;19.40;41.60;;;;;;5168943;27;19971;-66
2022/12/05 23:50:40;;;;;;;;;;;19.40;41.60;;;;;;5169095;27;20011;-67
2022/12/05 23:53:06;;;;;;;;;;;19.40;41.50;;;;;;5150690;27;19984;-67
2022/12/05 23:55:33;;;;;;;;;;;19.40;41.50;;;;;;5148878;27;20730;-67
2022/12/05 23:57:58;;;;;;;;;;;19.50;41.50;;;;;;5150101;27;19925;-67
